Terminal Aerodrome Forecast
Issued by NWS

Home | Current Version | Previous Version | Text Only | Print | Product List | Glossary On
Versions: 1 2 3 4 5 6 7 8 9 10 11 12
000
FTUS45 KRIW 221700
TAFRKS
TAF
KRKS 221720Z 2218/2318 20009KT P6SM SCT120
     FM222200 21012G20KT P6SM VCTS SCT060CB BKN070
     FM230000 22012KT P6SM -SHRA SCT050 BKN070
     FM230500 28013KT P6SM -SHRA FEW010 BKN050
     FM230800 27011KT P6SM FEW010 SCT050 BKN100
     FM231600 25012KT P6SM -SHRA SCT015 BKN050=

USA.gov is the U.S. government's official web portal to all federal, state and local government web resources and services.